sensor_id;sensor_type;location;lat;lon;timestamp;temperature;humidity
418;DHT22;49;48.530;9.200;2023-03-01T00:00:19;1.50;53.30
418;DHT22;49;48.530;9.200;2023-03-01T00:02:46;1.30;54.00
418;DHT22;49;48.530;9.200;2023-03-01T00:05:13;1.40;54.50
418;DHT22;49;48.530;9.200;2023-03-01T00:07:40;1.60;51.80
418;DHT22;49;48.530;9.200;2023-03-01T00:10:08;1.70;51.60
418;DHT22;49;48.530;9.200;2023-03-01T00:12:35;1.70;51.00
418;DHT22;49;48.530;9.200;2023-03-01T00:15:04;1.50;52.40
418;DHT22;49;48.530;9.200;2023-03-01T00:17:31;1.40;52.80
418;DHT22;49;48.530;9.200;2023-03-01T00:19:58;1.40;54.00
418;DHT22;49;48.530;9.200;2023-03-01T00:22:26;1.50;53.30
418;DHT22;49;48.530;9.200;2023-03-01T00:24:54;1.50;52.80
418;DHT22;49;48.530;9.200;2023-03-01T00:27:20;1.50;52.90
418;DHT22;49;48.530;9.200;2023-03-01T00:29:47;1.70;52.00
418;DHT22;49;48.530;9.200;2023-03-01T00:32:16;1.90;51.50
418;DHT22;49;48.530;9.200;2023-03-01T00:34:45;1.80;50.30
418;DHT22;49;48.530;9.200;2023-03-01T00:37:20;1.70;51.40
418;DHT22;49;48.530;9.200;2023-03-01T00:39:47;1.60;52.10
418;DHT22;49;48.530;9.200;2023-03-01T00:42:14;1.40;52.80
418;DHT22;49;48.530;9.200;2023-03-01T00:45:05;1.60;52.30
418;DHT22;49;48.530;9.200;2023-03-01T00:47:38;1.60;51.70
418;DHT22;49;48.530;9.200;2023-03-01T00:50:07;1.60;52.00
418;DHT22;49;48.530;9.200;2023-03-01T00:52:54;1.60;51.80
418;DHT22;49;48.530;9.200;2023-03-01T00:55:21;1.40;52.90
418;DHT22;49;48.530;9.200;2023-03-01T00:57:49;1.50;52.40
418;DHT22;49;48.530;9.200;2023-03-01T01:00:16;1.60;51.50
418;DHT22;49;48.530;9.200;2023-03-01T01:02:46;1.80;50.20
418;DHT22;49;48.530;9.200;2023-03-01T01:05:13;1.90;48.50
418;DHT22;49;48.530;9.200;2023-03-01T01:07:46;1.60;49.40
418;DHT22;49;48.530;9.200;2023-03-01T01:10:14;1.60;50.30
418;DHT22;49;48.530;9.200;2023-03-01T01:12:43;1.70;49.30
418;DHT22;49;48.530;9.200;2023-03-01T01:15:10;1.90;48.80
418;DHT22;49;48.530;9.200;2023-03-01T01:17:40;1.90;48.50
418;DHT22;49;48.530;9.200;2023-03-01T01:20:09;1.80;49.30
418;DHT22;49;48.530;9.200;2023-03-01T01:22:36;1.70;49.50
418;DHT22;49;48.530;9.200;2023-03-01T01:25:04;1.90;48.60
418;DHT22;49;48.530;9.200;2023-03-01T01:27:31;1.80;48.30
418;DHT22;49;48.530;9.200;2023-03-01T01:29:58;1.80;47.80
418;DHT22;49;48.530;9.200;2023-03-01T01:32:25;1.70;49.60
418;DHT22;49;48.530;9.200;2023-03-01T01:34:52;1.60;50.60
418;DHT22;49;48.530;9.200;2023-03-01T01:37:21;1.50;52.10
418;DHT22;49;48.530;9.200;2023-03-01T01:39:48;1.30;54.40
418;DHT22;49;48.530;9.200;2023-03-01T01:42:16;1.50;53.80
418;DHT22;49;48.530;9.200;2023-03-01T01:44:46;1.40;52.50
418;DHT22;49;48.530;9.200;2023-03-01T01:47:17;1.10;56.00
418;DHT22;49;48.530;9.200;2023-03-01T01:49:47;1.40;55.10
418;DHT22;49;48.530;9.200;2023-03-01T01:52:18;1.70;54.30
418;DHT22;49;48.530;9.200;2023-03-01T01:54:50;1.80;51.80
418;DHT22;49;48.530;9.200;2023-03-01T01:57:21;2.00;52.00
418;DHT22;49;48.530;9.200;2023-03-01T01:59:54;1.70;51.90
418;DHT22;49;48.530;9.200;2023-03-01T02:02:21;1.90;52.20
418;DHT22;49;48.530;9.200;2023-03-01T02:04:50;1.50;52.00
418;DHT22;49;48.530;9.200;2023-03-01T02:07:22;1.50;55.10
418;DHT22;49;48.530;9.200;2023-03-01T02:09:52;1.90;53.70
418;DHT22;49;48.530;9.200;2023-03-01T02:12:23;2.40;49.70
418;DHT22;49;48.530;9.200;2023-03-01T02:14:50;2.30;48.90
418;DHT22;49;48.530;9.200;2023-03-01T02:17:21;2.70;47.10
418;DHT22;49;48.530;9.200;2023-03-01T02:19:58;2.80;46.00
418;DHT22;49;48.530;9.200;2023-03-01T02:22:28;3.10;41.70
418;DHT22;49;48.530;9.200;2023-03-01T02:25:07;2.70;44.30
418;DHT22;49;48.530;9.200;2023-03-01T02:27:43;2.50;45.60
418;DHT22;49;48.530;9.200;2023-03-01T02:30:15;2.50;47.20
418;DHT22;49;48.530;9.200;2023-03-01T02:32:43;2.00;48.40
418;DHT22;49;48.530;9.200;2023-03-01T02:35:12;2.00;51.50
418;DHT22;49;48.530;9.200;2023-03-01T02:37:40;1.60;51.60
418;DHT22;49;48.530;9.200;2023-03-01T02:40:16;1.70;52.60
418;DHT22;49;48.530;9.200;2023-03-01T02:42:47;1.90;50.80
418;DHT22;49;48.530;9.200;2023-03-01T02:45:17;2.10;49.90
418;DHT22;49;48.530;9.200;2023-03-01T02:47:43;2.50;48.20
418;DHT22;49;48.530;9.200;2023-03-01T02:50:25;3.00;44.60
418;DHT22;49;48.530;9.200;2023-03-01T02:53:09;3.30;41.40
418;DHT22;49;48.530;9.200;2023-03-01T02:55:37;3.10;43.00
418;DHT22;49;48.530;9.200;2023-03-01T02:58:04;3.30;41.30
418;DHT22;49;48.530;9.200;2023-03-01T03:00:36;2.50;44.80
418;DHT22;49;48.530;9.200;2023-03-01T03:03:06;2.20;48.10
418;DHT22;49;48.530;9.200;2023-03-01T03:05:34;1.90;50.50
418;DHT22;49;48.530;9.200;2023-03-01T03:08:03;2.10;50.70
418;DHT22;49;48.530;9.200;2023-03-01T03:10:32;2.40;48.10
418;DHT22;49;48.530;9.200;2023-03-01T03:13:01;2.20;48.70
418;DHT22;49;48.530;9.200;2023-03-01T03:15:28;2.70;46.90
418;DHT22;49;48.530;9.200;2023-03-01T03:17:58;3.10;44.70
418;DHT22;49;48.530;9.200;2023-03-01T03:20:27;3.30;42.00
418;DHT22;49;48.530;9.200;2023-03-01T03:22:56;3.10;42.90
418;DHT22;49;48.530;9.200;2023-03-01T03:25:26;3.40;40.70
418;DHT22;49;48.530;9.200;2023-03-01T03:27:53;3.50;40.20
418;DHT22;49;48.530;9.200;2023-03-01T03:30:25;3.50;40.00
418;DHT22;49;48.530;9.200;2023-03-01T03:32:53;3.60;40.80
418;DHT22;49;48.530;9.200;2023-03-01T03:35:26;3.70;39.90
418;DHT22;49;48.530;9.200;2023-03-01T03:37:56;3.60;39.70
418;DHT22;49;48.530;9.200;2023-03-01T03:41:02;3.40;39.80
418;DHT22;49;48.530;9.200;2023-03-01T03:43:43;3.20;41.30
418;DHT22;49;48.530;9.200;2023-03-01T03:46:11;2.90;43.30
418;DHT22;49;48.530;9.200;2023-03-01T03:48:40;2.80;44.30
418;DHT22;49;48.530;9.200;2023-03-01T03:51:10;3.00;45.30
418;DHT22;49;48.530;9.200;2023-03-01T03:53:37;3.00;43.80
418;DHT22;49;48.530;9.200;2023-03-01T03:56:07;2.60;44.30
418;DHT22;49;48.530;9.200;2023-03-01T03:58:35;2.40;47.00
418;DHT22;49;48.530;9.200;2023-03-01T04:01:07;2.60;47.60
418;DHT22;49;48.530;9.200;2023-03-01T04:03:37;2.60;46.00
418;DHT22;49;48.530;9.200;2023-03-01T04:06:05;2.50;47.00
418;DHT22;49;48.530;9.200;2023-03-01T04:08:37;2.60;47.20
418;DHT22;49;48.530;9.200;2023-03-01T04:11:05;3.20;44.80
418;DHT22;49;48.530;9.200;2023-03-01T04:13:46;3.70;42.00
418;DHT22;49;48.530;9.200;2023-03-01T04:16:13;3.90;39.40
418;DHT22;49;48.530;9.200;2023-03-01T04:18:40;4.20;37.80
418;DHT22;49;48.530;9.200;2023-03-01T04:21:07;4.00;37.30
418;DHT22;49;48.530;9.200;2023-03-01T04:23:34;4.00;36.90
418;DHT22;49;48.530;9.200;2023-03-01T04:26:09;4.00;40.40
418;DHT22;49;48.530;9.200;2023-03-01T04:28:40;3.90;38.40
418;DHT22;49;48.530;9.200;2023-03-01T04:31:12;4.40;36.90
418;DHT22;49;48.530;9.200;2023-03-01T04:33:40;4.50;35.50
418;DHT22;49;48.530;9.200;2023-03-01T04:36:09;4.50;35.50
418;DHT22;49;48.530;9.200;2023-03-01T04:38:36;4.50;35.50
418;DHT22;49;48.530;9.200;2023-03-01T04:41:09;4.40;35.80
418;DHT22;49;48.530;9.200;2023-03-01T04:43:36;4.00;36.30
418;DHT22;49;48.530;9.200;2023-03-01T04:46:04;3.40;39.60
418;DHT22;49;48.530;9.200;2023-03-01T04:48:33;2.80;43.00
418;DHT22;49;48.530;9.200;2023-03-01T04:51:00;2.80;45.80
418;DHT22;49;48.530;9.200;2023-03-01T04:53:28;2.70;45.00
418;DHT22;49;48.530;9.200;2023-03-01T04:55:56;2.90;46.00
418;DHT22;49;48.530;9.200;2023-03-01T04:58:26;2.80;44.40
418;DHT22;49;48.530;9.200;2023-03-01T05:00:54;2.90;45.70
418;DHT22;49;48.530;9.200;2023-03-01T05:03:21;2.80;45.30
418;DHT22;49;48.530;9.200;2023-03-01T05:05:51;2.90;46.60
418;DHT22;49;48.530;9.200;2023-03-01T05:08:18;2.90;45.20
418;DHT22;49;48.530;9.200;2023-03-01T05:10:48;3.00;45.50
418;DHT22;49;48.530;9.200;2023-03-01T05:13:16;3.10;44.40
418;DHT22;49;48.530;9.200;2023-03-01T05:15:49;2.80;47.40
418;DHT22;49;48.530;9.200;2023-03-01T05:18:20;3.00;45.70
418;DHT22;49;48.530;9.200;2023-03-01T05:20:47;3.10;44.70
418;DHT22;49;48.530;9.200;2023-03-01T05:23:13;3.30;44.80
418;DHT22;49;48.530;9.200;2023-03-01T05:25:40;3.70;41.80
418;DHT22;49;48.530;9.200;2023-03-01T05:28:11;4.20;39.30
418;DHT22;49;48.530;9.200;2023-03-01T05:30:38;4.30;37.60
418;DHT22;49;48.530;9.200;2023-03-01T05:33:08;4.50;36.80
418;DHT22;49;48.530;9.200;2023-03-01T05:35:39;4.50;35.90
418;DHT22;49;48.530;9.200;2023-03-01T05:38:06;4.70;35.60
418;DHT22;49;48.530;9.200;2023-03-01T05:40:34;4.60;35.10
418;DHT22;49;48.530;9.200;2023-03-01T05:43:01;4.50;35.80
418;DHT22;49;48.530;9.200;2023-03-01T05:45:31;4.40;35.80
418;DHT22;49;48.530;9.200;2023-03-01T05:47:59;4.60;34.80
418;DHT22;49;48.530;9.200;2023-03-01T05:50:29;4.70;34.60
418;DHT22;49;48.530;9.200;2023-03-01T05:53:00;4.70;33.90
418;DHT22;49;48.530;9.200;2023-03-01T05:55:29;5.00;33.20
418;DHT22;49;48.530;9.200;2023-03-01T05:57:58;4.60;33.70
418;DHT22;49;48.530;9.200;2023-03-01T06:00:26;4.40;35.20
418;DHT22;49;48.530;9.200;2023-03-01T06:02:53;4.30;35.20
418;DHT22;49;48.530;9.200;2023-03-01T06:05:21;4.50;35.30
418;DHT22;49;48.530;9.200;2023-03-01T06:07:50;4.60;34.60
418;DHT22;49;48.530;9.200;2023-03-01T06:10:17;4.50;35.40
418;DHT22;49;48.530;9.200;2023-03-01T06:12:45;4.00;36.80
418;DHT22;49;48.530;9.200;2023-03-01T06:15:14;4.10;36.10
418;DHT22;49;48.530;9.200;2023-03-01T06:17:44;4.20;36.90
418;DHT22;49;48.530;9.200;2023-03-01T06:20:13;4.20;35.80
418;DHT22;49;48.530;9.200;2023-03-01T06:22:42;4.40;35.60
418;DHT22;49;48.530;9.200;2023-03-01T06:25:12;4.90;33.90
418;DHT22;49;48.530;9.200;2023-03-01T06:27:39;5.10;31.80
418;DHT22;49;48.530;9.200;2023-03-01T06:30:07;5.20;30.50
418;DHT22;49;48.530;9.200;2023-03-01T06:32:35;5.20;30.50
418;DHT22;49;48.530;9.200;2023-03-01T06:35:03;5.00;31.30
418;DHT22;49;48.530;9.200;2023-03-01T06:37:30;5.00;31.30
418;DHT22;49;48.530;9.200;2023-03-01T06:39:57;5.00;31.30
418;DHT22;49;48.530;9.200;2023-03-01T06:42:26;4.90;31.30
418;DHT22;49;48.530;9.200;2023-03-01T06:44:55;5.00;31.60
418;DHT22;49;48.530;9.200;2023-03-01T06:47:22;4.90;31.50
418;DHT22;49;48.530;9.200;2023-03-01T06:49:49;4.90;32.10
418;DHT22;49;48.530;9.200;2023-03-01T06:52:18;4.40;33.60
418;DHT22;49;48.530;9.200;2023-03-01T06:54:45;4.50;33.60
418;DHT22;49;48.530;9.200;2023-03-01T06:57:12;4.70;33.10
418;DHT22;49;48.530;9.200;2023-03-01T06:59:41;5.10;32.30
418;DHT22;49;48.530;9.200;2023-03-01T07:02:10;5.30;30.50
418;DHT22;49;48.530;9.200;2023-03-01T07:04:40;5.50;29.70
418;DHT22;49;48.530;9.200;2023-03-01T07:07:08;5.60;29.80
418;DHT22;49;48.530;9.200;2023-03-01T07:09:35;5.30;30.10
418;DHT22;49;48.530;9.200;2023-03-01T07:12:02;5.00;31.30
418;DHT22;49;48.530;9.200;2023-03-01T07:14:30;4.80;32.00
418;DHT22;49;48.530;9.200;2023-03-01T07:16:58;5.00;32.10
418;DHT22;49;48.530;9.200;2023-03-01T07:19:26;5.10;31.20
418;DHT22;49;48.530;9.200;2023-03-01T07:21:53;4.90;32.10
418;DHT22;49;48.530;9.200;2023-03-01T07:24:21;4.40;34.70
418;DHT22;49;48.530;9.200;2023-03-01T07:26:49;4.70;35.60
418;DHT22;49;48.530;9.200;2023-03-01T07:29:19;5.40;32.50
418;DHT22;49;48.530;9.200;2023-03-01T07:31:46;5.90;31.30
418;DHT22;49;48.530;9.200;2023-03-01T07:34:15;6.00;29.30
418;DHT22;49;48.530;9.200;2023-03-01T07:36:42;5.10;30.00
418;DHT22;49;48.530;9.200;2023-03-01T07:39:11;4.50;32.40
418;DHT22;49;48.530;9.200;2023-03-01T07:41:38;3.90;37.50
418;DHT22;49;48.530;9.200;2023-03-01T07:44:05;4.10;36.20
418;DHT22;49;48.530;9.200;2023-03-01T07:46:32;3.70;39.30
418;DHT22;49;48.530;9.200;2023-03-01T07:49:00;3.50;41.20
418;DHT22;49;48.530;9.200;2023-03-01T07:51:35;3.60;42.50
418;DHT22;49;48.530;9.200;2023-03-01T07:54:03;4.20;39.50
418;DHT22;49;48.530;9.200;2023-03-01T07:56:31;3.70;40.80
418;DHT22;49;48.530;9.200;2023-03-01T07:58:59;3.50;40.20
418;DHT22;49;48.530;9.200;2023-03-01T08:01:26;3.40;42.30
418;DHT22;49;48.530;9.200;2023-03-01T08:03:56;3.40;41.30
418;DHT22;49;48.530;9.200;2023-03-01T08:06:27;3.30;43.20
418;DHT22;49;48.530;9.200;2023-03-01T08:08:56;3.10;44.70
418;DHT22;49;48.530;9.200;2023-03-01T08:11:28;3.40;46.40
418;DHT22;49;48.530;9.200;2023-03-01T08:13:56;4.00;41.90
418;DHT22;49;48.530;9.200;2023-03-01T08:16:23;4.20;38.70
418;DHT22;49;48.530;9.200;2023-03-01T08:18:50;4.00;38.00
418;DHT22;49;48.530;9.200;2023-03-01T08:21:17;3.60;41.70
418;DHT22;49;48.530;9.200;2023-03-01T08:23:47;3.40;43.20
418;DHT22;49;48.530;9.200;2023-03-01T08:26:21;3.80;40.80
418;DHT22;49;48.530;9.200;2023-03-01T08:28:54;4.30;39.20
418;DHT22;49;48.530;9.200;2023-03-01T08:36:28;3.70;41.30
418;DHT22;49;48.530;9.200;2023-03-01T08:38:55;4.10;40.80
418;DHT22;49;48.530;9.200;2023-03-01T08:41:25;4.00;38.50
418;DHT22;49;48.530;9.200;2023-03-01T08:43:55;4.10;38.30
418;DHT22;49;48.530;9.200;2023-03-01T08:46:25;4.10;38.80
418;DHT22;49;48.530;9.200;2023-03-01T08:48:52;4.00;38.40
418;DHT22;49;48.530;9.200;2023-03-01T08:51:23;4.10;38.60
418;DHT22;49;48.530;9.200;2023-03-01T08:53:50;3.80;38.30
418;DHT22;49;48.530;9.200;2023-03-01T08:56:18;4.10;39.80
418;DHT22;49;48.530;9.200;2023-03-01T08:58:47;4.30;36.60
418;DHT22;49;48.530;9.200;2023-03-01T09:01:17;3.80;39.70
418;DHT22;49;48.530;9.200;2023-03-01T09:03:45;4.30;38.40
418;DHT22;49;48.530;9.200;2023-03-01T09:06:14;5.00;36.00
418;DHT22;49;48.530;9.200;2023-03-01T09:08:44;4.70;35.30
418;DHT22;49;48.530;9.200;2023-03-01T09:11:12;4.90;35.00
418;DHT22;49;48.530;9.200;2023-03-01T09:13:42;4.50;35.20
418;DHT22;49;48.530;9.200;2023-03-01T09:16:26;4.30;38.50
418;DHT22;49;48.530;9.200;2023-03-01T09:18:55;4.40;36.90
418;DHT22;49;48.530;9.200;2023-03-01T09:21:23;4.40;36.00
418;DHT22;49;48.530;9.200;2023-03-01T09:23:50;4.40;36.30
418;DHT22;49;48.530;9.200;2023-03-01T09:26:22;4.70;34.80
418;DHT22;49;48.530;9.200;2023-03-01T09:28:51;4.90;34.10
418;DHT22;49;48.530;9.200;2023-03-01T09:31:21;5.00;32.80
418;DHT22;49;48.530;9.200;2023-03-01T09:33:54;4.90;32.10
418;DHT22;49;48.530;9.200;2023-03-01T09:36:22;4.90;33.30
418;DHT22;49;48.530;9.200;2023-03-01T09:38:51;5.70;29.80
418;DHT22;49;48.530;9.200;2023-03-01T09:41:46;5.80;29.30
418;DHT22;49;48.530;9.200;2023-03-01T09:44:24;6.20;28.00
418;DHT22;49;48.530;9.200;2023-03-01T09:47:05;5.60;29.30
418;DHT22;49;48.530;9.200;2023-03-01T09:49:40;5.80;28.90
418;DHT22;49;48.530;9.200;2023-03-01T09:52:21;5.80;27.50
418;DHT22;49;48.530;9.200;2023-03-01T09:54:54;5.60;29.30
418;DHT22;49;48.530;9.200;2023-03-01T09:57:38;5.70;28.80
418;DHT22;49;48.530;9.200;2023-03-01T10:00:16;6.10;29.00
418;DHT22;49;48.530;9.200;2023-03-01T10:02:49;5.80;27.90
418;DHT22;49;48.530;9.200;2023-03-01T10:05:35;5.60;28.60
418;DHT22;49;48.530;9.200;2023-03-01T10:08:26;5.30;29.60
418;DHT22;49;48.530;9.200;2023-03-01T10:10:58;6.30;27.90
418;DHT22;49;48.530;9.200;2023-03-01T10:13:33;6.30;26.40
418;DHT22;49;48.530;9.200;2023-03-01T10:16:13;6.60;26.50
418;DHT22;49;48.530;9.200;2023-03-01T10:18:46;6.90;25.20
418;DHT22;49;48.530;9.200;2023-03-01T10:21:16;6.60;25.00
418;DHT22;49;48.530;9.200;2023-03-01T10:23:46;6.20;26.40
418;DHT22;49;48.530;9.200;2023-03-01T10:26:27;6.00;26.60
418;DHT22;49;48.530;9.200;2023-03-01T10:29:02;5.80;27.40
418;DHT22;49;48.530;9.200;2023-03-01T10:31:38;6.40;26.80
418;DHT22;49;48.530;9.200;2023-03-01T10:34:15;7.20;24.40
418;DHT22;49;48.530;9.200;2023-03-01T10:36:45;6.60;24.50
418;DHT22;49;48.530;9.200;2023-03-01T10:39:16;6.50;25.40
418;DHT22;49;48.530;9.200;2023-03-01T10:41:59;7.20;24.50
418;DHT22;49;48.530;9.200;2023-03-01T10:44:44;6.90;23.20
418;DHT22;49;48.530;9.200;2023-03-01T10:47:19;6.50;25.00
418;DHT22;49;48.530;9.200;2023-03-01T10:50:00;7.10;23.90
418;DHT22;49;48.530;9.200;2023-03-01T10:52:31;7.20;23.70
418;DHT22;49;48.530;9.200;2023-03-01T10:55:01;7.60;22.50
418;DHT22;49;48.530;9.200;2023-03-01T10:57:31;8.20;21.00
418;DHT22;49;48.530;9.200;2023-03-01T11:00:21;7.50;21.90
418;DHT22;49;48.530;9.200;2023-03-01T11:02:51;7.20;22.80
418;DHT22;49;48.530;9.200;2023-03-01T11:05:23;7.50;21.90
418;DHT22;49;48.530;9.200;2023-03-01T11:07:55;7.90;21.20
418;DHT22;49;48.530;9.200;2023-03-01T11:10:24;8.10;20.60
418;DHT22;49;48.530;9.200;2023-03-01T11:12:52;7.30;22.30
418;DHT22;49;48.530;9.200;2023-03-01T11:15:24;7.00;22.50
418;DHT22;49;48.530;9.200;2023-03-01T11:17:56;7.00;22.60
418;DHT22;49;48.530;9.200;2023-03-01T11:20:30;7.60;21.90
418;DHT22;49;48.530;9.200;2023-03-01T11:23:01;7.40;21.90
418;DHT22;49;48.530;9.200;2023-03-01T11:25:38;8.10;21.40
418;DHT22;49;48.530;9.200;2023-03-01T11:28:17;7.80;21.50
418;DHT22;49;48.530;9.200;2023-03-01T11:30:53;8.00;21.10
418;DHT22;49;48.530;9.200;2023-03-01T11:33:33;8.70;19.90
418;DHT22;49;48.530;9.200;2023-03-01T11:36:06;8.90;18.80
418;DHT22;49;48.530;9.200;2023-03-01T11:38:35;9.00;19.00
418;DHT22;49;48.530;9.200;2023-03-01T11:41:06;9.10;18.70
418;DHT22;49;48.530;9.200;2023-03-01T11:43:41;9.10;18.50
418;DHT22;49;48.530;9.200;2023-03-01T11:46:41;9.60;17.50
418;DHT22;49;48.530;9.200;2023-03-01T11:49:34;9.60;17.60
418;DHT22;49;48.530;9.200;2023-03-01T11:52:16;9.00;18.10
418;DHT22;49;48.530;9.200;2023-03-01T11:54:57;8.80;18.50
418;DHT22;49;48.530;9.200;2023-03-01T11:57:44;9.10;18.30
418;DHT22;49;48.530;9.200;2023-03-01T12:00:38;9.40;17.80
418;DHT22;49;48.530;9.200;2023-03-01T12:03:29;9.40;17.40
418;DHT22;49;48.530;9.200;2023-03-01T12:06:12;8.30;19.70
418;DHT22;49;48.530;9.200;2023-03-01T12:08:59;8.80;19.10
418;DHT22;49;48.530;9.200;2023-03-01T12:11:42;8.80;19.50
418;DHT22;49;48.530;9.200;2023-03-01T12:14:35;8.30;19.90
418;DHT22;49;48.530;9.200;2023-03-01T12:17:21;7.70;21.30
418;DHT22;49;48.530;9.200;2023-03-01T12:20:14;7.40;22.00
418;DHT22;49;48.530;9.200;2023-03-01T12:22:52;8.00;22.00
418;DHT22;49;48.530;9.200;2023-03-01T12:25:40;8.60;21.10
418;DHT22;49;48.530;9.200;2023-03-01T12:28:37;8.40;19.80
418;DHT22;49;48.530;9.200;2023-03-01T12:34:11;8.80;19.80
418;DHT22;49;48.530;9.200;2023-03-01T12:36:56;9.10;18.60
418;DHT22;49;48.530;9.200;2023-03-01T12:39:42;8.30;19.60
418;DHT22;49;48.530;9.200;2023-03-01T12:42:22;7.80;20.40
418;DHT22;49;48.530;9.200;2023-03-01T12:45:02;8.00;20.90
418;DHT22;49;48.530;9.200;2023-03-01T12:50:26;8.30;20.90
418;DHT22;49;48.530;9.200;2023-03-01T12:52:57;8.50;19.80
418;DHT22;49;48.530;9.200;2023-03-01T12:55:29;8.60;19.80
418;DHT22;49;48.530;9.200;2023-03-01T12:58:06;8.40;19.80
418;DHT22;49;48.530;9.200;2023-03-01T13:00:41;8.30;20.10
418;DHT22;49;48.530;9.200;2023-03-01T13:03:19;8.40;20.00
418;DHT22;49;48.530;9.200;2023-03-01T13:05:59;8.40;20.20
418;DHT22;49;48.530;9.200;2023-03-01T13:08:31;9.10;20.00
418;DHT22;49;48.530;9.200;2023-03-01T13:11:02;9.10;18.90
418;DHT22;49;48.530;9.200;2023-03-01T13:13:32;8.90;19.50
418;DHT22;49;48.530;9.200;2023-03-01T13:16:22;9.30;19.30
418;DHT22;49;48.530;9.200;2023-03-01T13:19:16;9.90;18.10
418;DHT22;49;48.530;9.200;2023-03-01T13:21:44;9.30;18.70
418;DHT22;49;48.530;9.200;2023-03-01T13:24:32;8.60;19.20
418;DHT22;49;48.530;9.200;2023-03-01T13:27:31;8.40;20.50
418;DHT22;49;48.530;9.200;2023-03-01T13:30:00;8.20;20.20
418;DHT22;49;48.530;9.200;2023-03-01T13:32:32;8.00;21.30
418;DHT22;49;48.530;9.200;2023-03-01T13:35:00;8.50;20.40
418;DHT22;49;48.530;9.200;2023-03-01T13:37:38;8.90;20.40
418;DHT22;49;48.530;9.200;2023-03-01T13:43:35;8.50;20.10
418;DHT22;49;48.530;9.200;2023-03-01T13:46:11;8.50;20.30
418;DHT22;49;48.530;9.200;2023-03-01T13:48:40;8.70;21.10
418;DHT22;49;48.530;9.200;2023-03-01T13:51:09;8.70;20.10
418;DHT22;49;48.530;9.200;2023-03-01T13:53:43;8.60;20.10
418;DHT22;49;48.530;9.200;2023-03-01T13:56:13;8.80;19.90
418;DHT22;49;48.530;9.200;2023-03-01T13:58:48;9.10;19.60
418;DHT22;49;48.530;9.200;2023-03-01T14:01:27;9.20;19.40
418;DHT22;49;48.530;9.200;2023-03-01T14:03:57;9.00;19.60
418;DHT22;49;48.530;9.200;2023-03-01T14:06:26;8.80;20.00
418;DHT22;49;48.530;9.200;2023-03-01T14:09:03;8.90;20.20
418;DHT22;49;48.530;9.200;2023-03-01T14:12:03;8.60;20.50
418;DHT22;49;48.530;9.200;2023-03-01T14:14:48;8.70;20.50
418;DHT22;49;48.530;9.200;2023-03-01T14:17:40;9.20;19.30
418;DHT22;49;48.530;9.200;2023-03-01T14:20:12;9.60;18.60
418;DHT22;49;48.530;9.200;2023-03-01T14:22:54;9.50;18.90
418;DHT22;49;48.530;9.200;2023-03-01T14:25:24;9.60;19.60
418;DHT22;49;48.530;9.200;2023-03-01T14:27:59;9.70;18.30
418;DHT22;49;48.530;9.200;2023-03-01T14:30:31;9.20;19.20
418;DHT22;49;48.530;9.200;2023-03-01T14:33:03;9.30;18.70
418;DHT22;49;48.530;9.200;2023-03-01T14:35:33;9.40;18.90
418;DHT22;49;48.530;9.200;2023-03-01T14:38:03;9.70;17.70
418;DHT22;49;48.530;9.200;2023-03-01T14:40:36;9.30;18.90
418;DHT22;49;48.530;9.200;2023-03-01T14:43:11;9.20;18.70
418;DHT22;49;48.530;9.200;2023-03-01T14:45:47;9.30;19.00
418;DHT22;49;48.530;9.200;2023-03-01T14:48:16;9.60;18.20
418;DHT22;49;48.530;9.200;2023-03-01T14:50:44;9.50;18.60
418;DHT22;49;48.530;9.200;2023-03-01T14:53:17;9.00;19.00
418;DHT22;49;48.530;9.200;2023-03-01T14:55:47;8.90;19.20
418;DHT22;49;48.530;9.200;2023-03-01T14:58:22;9.10;19.10
418;DHT22;49;48.530;9.200;2023-03-01T15:00:56;9.20;19.30
418;DHT22;49;48.530;9.200;2023-03-01T15:03:39;9.20;19.60
418;DHT22;49;48.530;9.200;2023-03-01T15:06:08;9.00;20.50
418;DHT22;49;48.530;9.200;2023-03-01T15:08:42;9.30;19.90
418;DHT22;49;48.530;9.200;2023-03-01T15:11:19;9.20;19.20
418;DHT22;49;48.530;9.200;2023-03-01T15:13:48;9.40;20.10
418;DHT22;49;48.530;9.200;2023-03-01T15:16:17;9.00;20.20
418;DHT22;49;48.530;9.200;2023-03-01T15:18:48;8.90;20.60
418;DHT22;49;48.530;9.200;2023-03-01T15:21:18;8.90;20.40
418;DHT22;49;48.530;9.200;2023-03-01T15:23:49;8.80;20.60
418;DHT22;49;48.530;9.200;2023-03-01T15:26:30;8.60;21.70
418;DHT22;49;48.530;9.200;2023-03-01T15:29:02;9.10;20.60
418;DHT22;49;48.530;9.200;2023-03-01T15:31:55;8.90;21.40
418;DHT22;49;48.530;9.200;2023-03-01T15:34:27;8.80;20.80
418;DHT22;49;48.530;9.200;2023-03-01T15:36:58;8.70;21.40
418;DHT22;49;48.530;9.200;2023-03-01T15:39:34;8.60;21.50
418;DHT22;49;48.530;9.200;2023-03-01T15:42:10;8.90;21.20
418;DHT22;49;48.530;9.200;2023-03-01T15:44:47;8.70;21.30
418;DHT22;49;48.530;9.200;2023-03-01T15:47:27;8.80;21.00
418;DHT22;49;48.530;9.200;2023-03-01T15:49:58;8.30;21.50
418;DHT22;49;48.530;9.200;2023-03-01T15:52:28;8.30;22.50
418;DHT22;49;48.530;9.200;2023-03-01T15:54:58;8.20;22.50
418;DHT22;49;48.530;9.200;2023-03-01T15:57:25;8.20;22.50
418;DHT22;49;48.530;9.200;2023-03-01T15:59:55;8.40;22.50
418;DHT22;49;48.530;9.200;2023-03-01T16:02:26;8.50;22.10
418;DHT22;49;48.530;9.200;2023-03-01T16:04:59;8.60;22.30
418;DHT22;49;48.530;9.200;2023-03-01T16:07:40;8.40;21.50
418;DHT22;49;48.530;9.200;2023-03-01T16:10:07;8.10;22.10
418;DHT22;49;48.530;9.200;2023-03-01T16:12:34;8.00;22.90
418;DHT22;49;48.530;9.200;2023-03-01T16:15:02;8.20;22.20
418;DHT22;49;48.530;9.200;2023-03-01T16:17:39;7.90;22.30
418;DHT22;49;48.530;9.200;2023-03-01T16:20:12;8.10;22.40
418;DHT22;49;48.530;9.200;2023-03-01T16:22:41;8.20;22.00
418;DHT22;49;48.530;9.200;2023-03-01T16:25:09;8.00;22.30
418;DHT22;49;48.530;9.200;2023-03-01T16:27:36;7.90;22.30
418;DHT22;49;48.530;9.200;2023-03-01T16:30:05;8.20;22.40
418;DHT22;49;48.530;9.200;2023-03-01T16:32:33;7.90;22.20
418;DHT22;49;48.530;9.200;2023-03-01T16:35:00;7.90;22.30
418;DHT22;49;48.530;9.200;2023-03-01T16:37:32;8.10;22.30
418;DHT22;49;48.530;9.200;2023-03-01T16:39:59;8.20;22.00
418;DHT22;49;48.530;9.200;2023-03-01T16:42:33;8.10;22.40
418;DHT22;49;48.530;9.200;2023-03-01T16:45:03;8.20;22.20
418;DHT22;49;48.530;9.200;2023-03-01T16:47:33;7.90;22.30
418;DHT22;49;48.530;9.200;2023-03-01T16:50:01;7.80;22.20
418;DHT22;49;48.530;9.200;2023-03-01T16:52:33;7.80;22.20
418;DHT22;49;48.530;9.200;2023-03-01T16:55:02;7.70;22.30
418;DHT22;49;48.530;9.200;2023-03-01T16:57:38;7.60;22.80
418;DHT22;49;48.530;9.200;2023-03-01T17:00:09;7.70;22.20
418;DHT22;49;48.530;9.200;2023-03-01T17:02:51;7.40;23.50
418;DHT22;49;48.530;9.200;2023-03-01T17:05:36;7.50;22.90
418;DHT22;49;48.530;9.200;2023-03-01T17:08:12;7.50;23.10
418;DHT22;49;48.530;9.200;2023-03-01T17:10:41;7.60;22.70
418;DHT22;49;48.530;9.200;2023-03-01T17:13:11;7.50;22.60
418;DHT22;49;48.530;9.200;2023-03-01T17:15:39;7.50;22.80
418;DHT22;49;48.530;9.200;2023-03-01T17:18:08;7.60;23.00
418;DHT22;49;48.530;9.200;2023-03-01T17:20:37;7.50;23.00
418;DHT22;49;48.530;9.200;2023-03-01T17:23:04;7.70;22.70
418;DHT22;49;48.530;9.200;2023-03-01T17:25:33;7.50;22.00
418;DHT22;49;48.530;9.200;2023-03-01T17:28:06;7.40;23.30
418;DHT22;49;48.530;9.200;2023-03-01T17:30:33;7.50;22.90
418;DHT22;49;48.530;9.200;2023-03-01T17:33:00;7.70;22.80
418;DHT22;49;48.530;9.200;2023-03-01T17:35:27;7.60;22.30
418;DHT22;49;48.530;9.200;2023-03-01T17:37:55;7.70;22.20
418;DHT22;49;48.530;9.200;2023-03-01T17:40:22;7.70;22.60
418;DHT22;49;48.530;9.200;2023-03-01T17:42:50;7.40;23.30
418;DHT22;49;48.530;9.200;2023-03-01T17:45:21;7.50;23.20
418;DHT22;49;48.530;9.200;2023-03-01T17:47:50;7.60;22.90
418;DHT22;49;48.530;9.200;2023-03-01T17:50:17;7.90;22.40
418;DHT22;49;48.530;9.200;2023-03-01T17:52:45;8.00;22.30
418;DHT22;49;48.530;9.200;2023-03-01T17:55:15;8.20;22.20